Chase City, Virginia
Current Conditions -  °F | °C
As of 2:15 AM on Sunday 26 Oct 2014 (Local Time) from KCXE Reporting Station
Clear Clear  
Wind Chill: 56°   Ceiling: Unl
Heat Index: 56°   Visibility: 10mi
Dew Point: 49°   Wind: 3mph
Humidity: 77%   Direction: 250°WSW
Pressure: 29.81"   Gusts: NA
Location:  36.8°N, 78.46°W
Report Text: KCXE 260615Z AUTO 25003KT 10SM CLR 14/10 A2981 RMK AO1 T01350095
Loading
Personal Weather Stations






























Interactive Weather Map
Tropical Storm Tracking
New forecast layout! Learn more

10-Day Weather Forecast

Advertisements
Track Severe Weather on mobile